F/V Annytia — FMET — position and weather

sailwx.info

Track history (hours):
 
Tides and Currents Weather Stations Pressure Air Temp Water Temp Dewpoint Dewpoint Depression Visibility Wind Speed Wind Dir Waves Ship Positions

F/V Annytia

Last reported at 2017-Sep-24 06:43 UTC. Time now 2017-Sep-24 21:24 UTC.
Position N 44°09' W 007°43'.

Length 17 m.

Type: Fishing. MMSI: 228215700.

Date/timePositionNaut miles runAvg speedWind from/ knotsBaromVisibWave heightAir tempDewpointWater temp
2017-Sep-24 06:43N 44°09' W 007°43'2 1.1
2017-Sep-24 04:43N 44°09' W 007°46'1 4.2
2017-Sep-24 04:23N 44°09' W 007°44'1 1.3
2017-Sep-24 03:41N 44°10' W 007°44'1 4.2
2017-Sep-24 03:26N 44°10' W 007°45'2 3.5
2017-Sep-24 02:59N 44°09' W 007°43'2 3.9
2017-Sep-24 02:28N 44°09' W 007°41'2 3.0
2017-Sep-24 01:56N 44°09' W 007°43'2 4.2
2017-Sep-24 01:21N 44°09' W 007°46'2 4.2
2017-Sep-24 01:00N 44°10' W 007°48'1 1.1
2017-Sep-24 00:29N 44°10' W 007°49'2 4.1
2017-Sep-23 23:57N 44°09' W 007°46'2 4.1
2017-Sep-23 23:24N 44°08' W 007°43'2 4.0
2017-Sep-23 22:59N 44°08' W 007°41'  
2017-Sep-20 19:01N 43°56' W 005°22'1 8.4
2017-Sep-20 18:58N 43°56' W 005°21'69 8.1
2017-Sep-20 10:29N 44°09' W 003°48'4 7.6
2017-Sep-20 09:56N 44°10' W 003°42'30 1.0
2017-Sep-19 03:01N 43°52' W 003°08'1 7.3
2017-Sep-19 02:54N 43°52' W 003°09'6 8.1
2017-Sep-19 02:14N 43°51' W 003°17'3 8.2
2017-Sep-19 01:55N 43°51' W 003°20'  
2017-Sep-14 17:13N 47°07' W 004°01'4 7.9
2017-Sep-14 16:44N 47°10' W 003°58'2 7.9
2017-Sep-14 16:30N 47°11' W 003°56'4 7.5
2017-Sep-14 15:54N 47°15' W 003°53'3 6.8
2017-Sep-14 15:25N 47°18' W 003°50'3 7.1
2017-Sep-14 14:59N 47°21' W 003°49'4 7.4
2017-Sep-14 14:30N 47°24' W 003°47'4 7.5
2017-Sep-14 14:00N 47°27' W 003°43'4 7.5
2017-Sep-14 13:30N 47°30' W 003°40'4 7.5
2017-Sep-14 13:00N 47°33' W 003°37'4 7.5
2017-Sep-14 12:30N 47°36' W 003°34'4 7.7
2017-Sep-14 12:00N 47°39' W 003°31'4 7.2
2017-Sep-14 11:30N 47°41' W 003°26'4 7.8
2017-Sep-14 11:00N 47°43' W 003°22'0 0.8
2017-Sep-14 10:28N 47°44' W 003°22'0 0.0
2017-Sep-14 09:58N 47°44' W 003°22'0 0.2
2017-Sep-14 09:28N 47°44' W 003°22'0 0.0
2017-Sep-14 08:58N 47°44' W 003°22'0 0.0
2017-Sep-14 08:28N 47°44' W 003°22'  
Track history (hours):
 
Tides and Currents Weather Stations Pressure Air Temp Water Temp Dewpoint Dewpoint Depression Visibility Wind Speed Wind Dir Waves Ship Positions

F/V Annytia

Last reported at 2017-Sep-24 06:43 UTC. Time now 2017-Sep-24 21:24 UTC.
Position N 44°09' W 007°43'.

Length 17 m.

Type: Fishing. MMSI: 228215700.

Date/timePositionNaut miles runAvg speedWind from/ knotsBaromVisibWave heightAir tempDewpointWater temp
2017-Sep-24 06:43N 44°09' W 007°43'2 1.1
2017-Sep-24 04:43N 44°09' W 007°46'1 4.2
2017-Sep-24 04:23N 44°09' W 007°44'1 1.3
2017-Sep-24 03:41N 44°10' W 007°44'1 4.2
2017-Sep-24 03:26N 44°10' W 007°45'2 3.5
2017-Sep-24 02:59N 44°09' W 007°43'2 3.9
2017-Sep-24 02:28N 44°09' W 007°41'2 3.0
2017-Sep-24 01:56N 44°09' W 007°43'2 4.2
2017-Sep-24 01:21N 44°09' W 007°46'2 4.2
2017-Sep-24 01:00N 44°10' W 007°48'1 1.1
2017-Sep-24 00:29N 44°10' W 007°49'2 4.1
2017-Sep-23 23:57N 44°09' W 007°46'2 4.1
2017-Sep-23 23:24N 44°08' W 007°43'2 4.0
2017-Sep-23 22:59N 44°08' W 007°41'  
2017-Sep-20 19:01N 43°56' W 005°22'1 8.4
2017-Sep-20 18:58N 43°56' W 005°21'69 8.1
2017-Sep-20 10:29N 44°09' W 003°48'4 7.6
2017-Sep-20 09:56N 44°10' W 003°42'30 1.0
2017-Sep-19 03:01N 43°52' W 003°08'1 7.3
2017-Sep-19 02:54N 43°52' W 003°09'6 8.1
2017-Sep-19 02:14N 43°51' W 003°17'3 8.2
2017-Sep-19 01:55N 43°51' W 003°20'  
2017-Sep-14 17:13N 47°07' W 004°01'4 7.9
2017-Sep-14 16:44N 47°10' W 003°58'2 7.9
2017-Sep-14 16:30N 47°11' W 003°56'4 7.5
2017-Sep-14 15:54N 47°15' W 003°53'3 6.8
2017-Sep-14 15:25N 47°18' W 003°50'3 7.1
2017-Sep-14 14:59N 47°21' W 003°49'4 7.4
2017-Sep-14 14:30N 47°24' W 003°47'4 7.5
2017-Sep-14 14:00N 47°27' W 003°43'4 7.5
2017-Sep-14 13:30N 47°30' W 003°40'4 7.5
2017-Sep-14 13:00N 47°33' W 003°37'4 7.5
2017-Sep-14 12:30N 47°36' W 003°34'4 7.7
2017-Sep-14 12:00N 47°39' W 003°31'4 7.2
2017-Sep-14 11:30N 47°41' W 003°26'4 7.8
2017-Sep-14 11:00N 47°43' W 003°22'0 0.8
2017-Sep-14 10:28N 47°44' W 003°22'0 0.0
2017-Sep-14 09:58N 47°44' W 003°22'0 0.2
2017-Sep-14 09:28N 47°44' W 003°22'0 0.0
2017-Sep-14 08:58N 47°44' W 003°22'0 0.0
2017-Sep-14 08:28N 47°44' W 003°22'  

Dump ship's entire track history